CheckWX is a tool to help pilots better visualize weather data.  It is not intended as a substitute for an official pre-flight weather briefing.

06:40:18 UTC

5T9 METAR
Maverick County Memorial International Airport
Eagle Pass, Texas, USA
Current

25 mins ago

K5T9 230615Z AUTO 11009G14KT 10SM SCT048 BKN055 22/17 A2995 RMK A01
Observed
Apr-23 @ 06:15 UTC
Wind
  • 110° at 9 KTS
  • Gusting to 14 KTS
Visibility
10 SM
Flight Rules
VFR
Cloud Levels
  • Scattered at 4,800' AGL
  • Broken at 5,500' AGL
Temperature
22°C / 72°F
Dewpoint
17°C / 63°F
Humidity
73%
Altimeter
29.95" Hg
Pressure
1014.22 hPa
Previous

45 mins ago

K5T9 230555Z AUTO 11009KT 10SM FEW045 BKN050 22/17 A2996 RMK A01
Observed
Apr-23 @ 05:55 UTC
Wind
  • 110° at 9 KTS
Visibility
10 SM
Flight Rules
VFR
Cloud Levels
  • Few at 4,500' AGL
  • Broken at 5,000' AGL
Temperature
22°C / 72°F
Dewpoint
17°C / 63°F
Humidity
73%
Altimeter
29.96" Hg
Pressure
1014.52 hPa
Previous

1 hour ago

K5T9 230535Z AUTO 11009G14KT 10SM BKN044 BKN050 22/17 A2996 RMK A01
Observed
Apr-23 @ 05:35 UTC
Wind
  • 110° at 9 KTS
  • Gusting to 14 KTS
Visibility
10 SM
Flight Rules
VFR
Cloud Levels
  • Broken at 4,400' AGL
  • Broken at 5,000' AGL
Temperature
22°C / 72°F
Dewpoint
17°C / 63°F
Humidity
73%
Altimeter
29.96" Hg
Pressure
1014.52 hPa